Have a Safe July 4th! 

Flight Track Log - Related Links

Times and Time Zones

All times are in EDT time to prevent confusion due to time zone crossing. See the ISA220 flight status page for this flight to view local times or setup timezone preferences in your user account.

Time Position Orientation Groundspeed Altitude Reporting Facility
EDT Latitude Longitude Course Direction KTS MPH feet Rate Location/Type
Tue 08:21:00 PM 41.4823 -70.1667 North  Level FlightAware Approximate
Tue 08:22:00 PM 41.5210 -70.1865 331° Northwest  Level FlightAware Approximate
Tue 08:23:00 PM 41.5572 -70.2137 331° Northwest  Level FlightAware Approximate
Tue 08:24:00 PM 41.5945 -70.2378 343° North  Level FlightAware Approximate
Tue 08:25:00 PM 41.6343 -70.2537 343° North  Level FlightAware Approximate
Tue 08:26:00 PM 41.6667 -70.2667 343° North  Level FlightAware Approximate
Tue 08:27:00 PM 41.6693 -70.2804 343° North  Level Estimated
Tue 08:28:00 PM 41.6693 -70.2804 343° North  Level Estimated
Tue 08:29:00 PM 41.6693 -70.2804 343° North  Level Estimated
Tue 08:30:00 PM 41.6693 -70.2804 343° North  Level Estimated
Tue 08:31:00 PM 41.6693 -70.2804 343° North  Level Estimated
Tue 08:32:00 PM 41.6693 -70.2804 343° North  Level Estimated
Tue 08:33:00 PM 41.6693 -70.2804 343° North  Level Estimated
Tue 08:34:00 PM 41.6693 -70.2804 343° North  Level Estimated
Tue 08:35:00 PM 41.6693 -70.2804 343° North  Level Estimated
Tue 08:36:00 PM 41.6693 -70.2804 343° North  Level Estimated
Tue 08:37:00 PM 41.6693 -70.2804 343° North  Level Estimated
Tue 08:38:00 PM 41.6693 -70.2804 343° North  Level Estimated
Tue 08:39:00 PM 41.6693 -70.2804 343° North  Level Estimated
Tue 08:40:00 PM 41.6693 -70.2804 343° North  Level Estimated

Login

Don't have an account? Register now (free) for customized features, flight alerts, and more!